• Join FlightAware (Why Join?)
  • Login
  • US Flag 
Rudolph Flight #1: Arrived! 
05:22AM EST


 

Airport Tracker/Info


-or-


 

Live Flight TrackerFlight Track Log ✈ MTN8308 ✈ 05-Sep-2013 ✈ KEWR - KBWI

Flight Track Log - Related Links

Times and Time Zones

All times are in EDT time to prevent confusion due to time zone crossing. See the MTN8308 flight status page for this flight to view local times or setup timezone preferences in your user account.

Time Position Orientation Groundspeed Altitude Reporting Facility
EDT Latitude Longitude Course Direction KTS MPH feet Rate Location/Type
03:19AM 40.6833 -74.2000 270° West 82 94 800  Level New York TRACON
03:20AM 40.6667 -74.2333 237° Southwest 97 112 1,400 600 Climbing New York TRACON
03:21AM 40.6500 -74.2667 237° Southwest 103 119 2,000 540 Climbing New York TRACON
03:22AM 40.6500 -74.3000 270° West 117 135 2,500 540 Climbing New York TRACON
03:23AM 40.6333 -74.3500 246° West 119 137 3,100 540 Climbing New York TRACON
03:24AM 40.6000 -74.3833 217° Southwest 119 137 3,600 420 Climbing New York TRACON
03:25AM 40.6333 -74.4247 270° West  Level FlightAware Approximate
03:25AM 40.5833 -74.4167 237° Southwest 123 142 4,000  Level New York TRACON
03:26AM 40.5500 -74.4500 217° Southwest 143 165 4,000  Level New York TRACON
03:27AM 40.5333 -74.4833 237° Southwest 149 171 4,000  Level New York TRACON
03:28AM 40.5000 -74.5333 229° Southwest 149 171 4,000  Level New York TRACON
03:29AM 40.4833 -74.5667 237° Southwest 150 173 4,000  Level New York TRACON
03:31AM 40.4333 -74.6333 225° Southwest 153 176 4,100  Climbing Philadelphia TRACON
03:32AM 40.4167 -74.6833 246° West 155 178 4,000 -60 Descending Philadelphia TRACON
03:33AM 40.3833 -74.7167 217° Southwest 151 174 4,000  Level Philadelphia TRACON
03:34AM 40.3667 -74.7667 246° West 149 171 4,000  Level Philadelphia TRACON
03:35AM 40.3500 -74.8167 246° West 148 170 4,000  Level Philadelphia TRACON
03:36AM 40.3167 -74.8667 229° Southwest 147 169 4,000  Level Philadelphia TRACON
03:37AM 40.3000 -74.9000 237° Southwest 147 169 4,000  Level Philadelphia TRACON
03:38AM 40.2833 -74.9500 246° West 149 171 4,000  Level Philadelphia TRACON
03:39AM 40.2500 -75.0000 229° Southwest 148 170 4,000  Level Philadelphia TRACON
03:40AM 40.2333 -75.0333 237° Southwest 150 173 4,000  Level Philadelphia TRACON
03:41AM 40.2000 -75.1000 237° Southwest 150 173 4,000  Level Philadelphia TRACON
03:42AM 40.1833 -75.1333 237° Southwest 151 174 4,000  Level Philadelphia TRACON
03:43AM 40.1667 -75.1833 246° West 152 175 4,000  Level Philadelphia TRACON
03:44AM 40.1333 -75.2167 217° Southwest 152 175 4,000  Level Philadelphia TRACON
03:45AM 40.1167 -75.2667 246° West 149 171 4,000  Level Philadelphia TRACON
03:46AM 40.1000 -75.3167 246° West 151 174 4,000  Level Philadelphia TRACON
03:47AM 40.0667 -75.3667 229° Southwest 152 175 4,000  Level Philadelphia TRACON
03:48AM 40.0500 -75.4167 246° West 151 174 4,000  Level Philadelphia TRACON
03:49AM 40.0333 -75.4500 237° Southwest 151 174 4,000  Level Philadelphia TRACON
03:50AM 40.0000 -75.5000 229° Southwest 155 178 4,000  Level Philadelphia TRACON
03:51AM 39.9833 -75.5500 247° West 154 177 4,000  Level Philadelphia TRACON
03:52AM 39.9500 -75.6000 229° Southwest 154 177 4,000  Level Philadelphia TRACON
03:53AM 39.9333 -75.6500 247° West 154 177 4,000  Level Philadelphia TRACON
03:54AM 39.9000 -75.6833 217° Southwest 155 178 4,000  Level Philadelphia TRACON
03:55AM 39.8833 -75.7333 247° West 156 180 4,000  Level Philadelphia TRACON
03:56AM 39.8500 -75.7667 218° Southwest 158 182 4,000  Level Philadelphia TRACON
03:58AM 39.7833 -75.8667 229° Southwest 159 183 4,000  Level Potomac TRACON
03:59AM 39.7500 -75.9000 218° Southwest 158 182 4,000  Level Potomac TRACON
04:00AM 39.7167 -75.9333 218° Southwest 159 183 4,000  Level Potomac TRACON
04:01AM 39.6833 -75.9833 229° Southwest 157 181 4,000  Level Potomac TRACON
04:02AM 39.6667 -76.0167 237° Southwest 157 181 4,000  Level Potomac TRACON
04:03AM 39.6333 -76.0500 218° Southwest 159 183 4,000  Level Potomac TRACON
04:04AM 39.6000 -76.1000 229° Southwest 156 180 4,000  Level Potomac TRACON
04:05AM 39.5667 -76.1333 218° Southwest 160 184 4,000  Level Potomac TRACON
04:06AM 39.5500 -76.1833 247° West 157 181 4,000  Level Potomac TRACON
04:07AM 39.5167 -76.2167 218° Southwest 156 180 4,000  Level Potomac TRACON
04:08AM 39.4833 -76.2500 218° Southwest 155 178 4,000  Level Potomac TRACON
04:09AM 39.4500 -76.3000 229° Southwest 156 180 4,000  Level Potomac TRACON
04:10AM 39.4167 -76.3333 218° Southwest 157 181 4,000 -60 Level Potomac TRACON
04:11AM 39.3833 -76.3833 229° Southwest 159 183 3,900 -180 Descending Potomac TRACON
04:12AM 39.3500 -76.4167 218° Southwest 163 188 3,700 -300 Descending Potomac TRACON
04:13AM 39.3167 -76.4500 218° Southwest 170 196 3,300 -600 Descending Potomac TRACON
04:14AM 39.2833 -76.5000 229° Southwest 178 205 2,600 -660 Descending Potomac TRACON
04:15AM 39.2500 -76.5333 218° Southwest 180 207 2,000 -600 Descending Potomac TRACON
04:16AM 39.2000 -76.5833 218° Southwest 175 201 1,400 -660 Descending Potomac TRACON
04:17AM 39.1833 -76.6167 237° Southwest 157 181 700 -540 Descending Potomac TRACON
04:18AM 39.1667 -76.6500 237° Southwest 124 143 400 -300 Descending Potomac TRACON
04:20AM 39.1667 -76.6667 270° West  Level FlightAware Approximate
04:27AM 39.1754 -76.6683 270° West  Level Estimated
04:28AM 39.1754 -76.6683 270° West  Level Estimated
04:29AM 39.1754 -76.6683 270° West  Level Estimated